createdAt,value
2023-02-21T00:01:59.990Z,8.40
2023-02-21T00:04:45.415Z,8.40
2023-02-21T00:07:30.948Z,8.40
2023-02-21T00:10:16.457Z,8.40
2023-02-21T00:13:01.924Z,8.40
2023-02-21T00:18:33.268Z,8.40
2023-02-21T00:21:18.754Z,8.30
2023-02-21T00:24:04.738Z,8.30
2023-02-21T00:26:50.057Z,8.40
2023-02-21T00:29:35.463Z,8.40
2023-02-21T00:32:20.844Z,8.40
2023-02-21T00:35:06.237Z,8.40
2023-02-21T00:37:51.704Z,8.40
2023-02-21T00:40:37.155Z,8.40
2023-02-21T00:43:22.749Z,8.40
2023-02-21T00:46:08.147Z,8.40
2023-02-21T00:48:53.533Z,8.40
2023-02-21T00:51:38.865Z,8.40
2023-02-21T00:54:24.294Z,8.50
2023-02-21T00:57:09.838Z,8.50
2023-02-21T00:59:55.298Z,8.50
2023-02-21T01:02:40.760Z,8.50
2023-02-21T01:05:26.758Z,8.50
2023-02-21T01:08:12.135Z,8.50
2023-02-21T01:10:57.575Z,8.50
2023-02-21T01:13:43.071Z,8.50
2023-02-21T01:16:28.375Z,8.50
2023-02-21T01:19:13.761Z,8.50
2023-02-21T01:21:59.281Z,8.50
2023-02-21T01:24:44.766Z,8.50
2023-02-21T01:27:30.039Z,8.50
2023-02-21T01:30:15.743Z,8.50
2023-02-21T01:33:01.157Z,8.50
2023-02-21T01:35:46.605Z,8.50
2023-02-21T01:38:31.991Z,8.50
2023-02-21T01:41:17.431Z,8.50
2023-02-21T01:44:24.203Z,8.60
2023-02-21T01:47:09.853Z,8.60
2023-02-21T01:49:59.825Z,8.60
2023-02-21T01:52:45.171Z,8.50
2023-02-21T01:55:30.648Z,8.50
2023-02-21T01:58:16.284Z,8.50
2023-02-21T02:01:01.760Z,8.50
2023-02-21T02:03:48.121Z,8.50
2023-02-21T02:06:35.168Z,8.50
2023-02-21T02:09:37.724Z,8.50
2023-02-21T02:12:26.221Z,8.50
2023-02-21T02:15:16.030Z,8.50
2023-02-21T02:18:20.916Z,8.60
2023-02-21T02:20:59.478Z,8.60
2023-02-21T02:23:40.810Z,8.60
2023-02-21T02:27:01.055Z,8.60
2023-02-21T02:29:57.533Z,8.50
2023-02-21T02:33:01.965Z,8.50
2023-02-21T02:35:34.249Z,8.50
2023-02-21T02:38:31.366Z,8.50
2023-02-21T02:41:24.090Z,8.50
2023-02-21T02:43:58.237Z,8.50
2023-02-21T02:46:28.695Z,8.50
2023-02-21T02:49:01.250Z,8.50
2023-02-21T02:51:28.687Z,8.60
2023-02-21T02:53:55.704Z,8.60
2023-02-21T02:56:23.697Z,8.60
2023-02-21T02:59:00.805Z,8.60
2023-02-21T03:01:49.471Z,8.60
2023-02-21T03:04:34.906Z,8.60
2023-02-21T03:07:16.687Z,8.60
2023-02-21T03:10:01.388Z,8.60
2023-02-21T03:12:46.855Z,8.60
2023-02-21T03:15:26.178Z,8.60
2023-02-21T03:18:11.390Z,8.60
2023-02-21T03:20:40.028Z,8.60
2023-02-21T03:23:07.795Z,8.60
2023-02-21T03:25:36.080Z,8.60
2023-02-21T03:28:03.273Z,8.60
2023-02-21T03:30:30.553Z,8.60
2023-02-21T03:32:58.029Z,8.60
2023-02-21T03:35:29.955Z,8.60
2023-02-21T03:37:58.587Z,8.60
2023-02-21T03:40:29.133Z,8.60
2023-02-21T03:42:57.770Z,8.60
2023-02-21T03:45:24.681Z,8.60
2023-02-21T03:47:51.380Z,8.60
2023-02-21T03:50:18.235Z,8.60
2023-02-21T03:52:45.197Z,8.60
2023-02-21T03:55:13.027Z,8.60
2023-02-21T03:57:39.801Z,8.60
2023-02-21T04:00:07.222Z,8.60
2023-02-21T04:02:33.938Z,8.60
2023-02-21T04:05:00.653Z,8.60
2023-02-21T04:07:27.800Z,8.60
2023-02-21T04:09:54.519Z,8.60
2023-02-21T04:12:21.244Z,8.50
2023-02-21T04:14:47.985Z,8.50
2023-02-21T04:17:16.126Z,8.50
2023-02-21T04:19:43.203Z,8.50
2023-02-21T04:22:09.936Z,8.50
2023-02-21T04:24:36.619Z,8.50
2023-02-21T04:27:03.441Z,8.50
2023-02-21T04:29:30.311Z,8.50
2023-02-21T04:31:57.735Z,8.50
2023-02-21T04:34:24.787Z,8.50
2023-02-21T04:36:51.617Z,8.50
2023-02-21T04:39:18.377Z,8.50
2023-02-21T04:41:45.073Z,8.40
2023-02-21T04:44:12.901Z,8.50
2023-02-21T04:46:39.730Z,8.50
2023-02-21T04:49:06.492Z,8.50
2023-02-21T04:51:33.285Z,8.50
2023-02-21T04:54:00.089Z,8.50
2023-02-21T04:56:28.899Z,8.40
2023-02-21T04:58:56.444Z,8.40
2023-02-21T05:01:26.655Z,8.40
2023-02-21T05:03:53.393Z,8.40
2023-02-21T05:06:22.355Z,8.40
2023-02-21T05:08:49.370Z,8.40
2023-02-21T05:11:17.770Z,8.40
2023-02-21T05:13:44.942Z,8.40
2023-02-21T05:16:12.071Z,8.40
2023-02-21T05:18:38.903Z,8.40
2023-02-21T05:21:08.598Z,8.40
2023-02-21T05:23:36.751Z,8.50
2023-02-21T05:26:12.681Z,8.40
2023-02-21T05:28:40.781Z,8.40
2023-02-21T05:31:07.904Z,8.40
2023-02-21T05:33:34.914Z,8.50
2023-02-21T05:36:01.920Z,8.50
2023-02-21T05:38:28.706Z,8.50
2023-02-21T05:40:55.482Z,8.50
2023-02-21T05:43:22.398Z,8.50
2023-02-21T05:45:49.154Z,8.50
2023-02-21T05:48:15.908Z,8.40
2023-02-21T05:50:42.621Z,8.40
2023-02-21T05:53:10.448Z,8.40
2023-02-21T05:55:37.594Z,8.40
2023-02-21T05:58:04.661Z,8.40
2023-02-21T06:00:31.641Z,8.40
2023-02-21T06:02:58.407Z,8.40
2023-02-21T06:05:25.435Z,8.40
2023-02-21T06:07:52.530Z,8.40
2023-02-21T06:10:19.850Z,8.40
2023-02-21T06:12:47.284Z,8.40
2023-02-21T06:15:15.433Z,8.40
2023-02-21T06:17:42.893Z,8.30
2023-02-21T06:20:16.698Z,8.40
2023-02-21T06:22:44.006Z,8.30
2023-02-21T06:25:11.112Z,8.30
2023-02-21T06:27:37.826Z,8.30
2023-02-21T06:30:05.621Z,8.30
2023-02-21T06:32:32.388Z,8.30
2023-02-21T06:34:59.065Z,8.30
2023-02-21T06:37:25.881Z,8.30
2023-02-21T06:39:52.624Z,8.30
2023-02-21T06:42:19.584Z,8.30
2023-02-21T06:44:47.529Z,8.30
2023-02-21T06:47:14.801Z,8.20
2023-02-21T06:49:41.766Z,8.20
2023-02-21T06:52:09.157Z,8.20
2023-02-21T06:54:36.353Z,8.20
2023-02-21T06:57:03.310Z,8.20
2023-02-21T06:59:30.083Z,8.20
2023-02-21T07:01:57.536Z,8.20
2023-02-21T07:04:25.183Z,8.20
2023-02-21T07:06:52.596Z,8.20
2023-02-21T07:09:19.338Z,8.20
2023-02-21T07:11:47.085Z,8.20
2023-02-21T07:14:14.930Z,8.20
2023-02-21T07:16:41.620Z,8.20
2023-02-21T07:19:08.515Z,8.20
2023-02-21T07:21:35.265Z,8.20
2023-02-21T07:24:01.997Z,8.20
2023-02-21T07:26:28.684Z,8.20
2023-02-21T07:28:55.449Z,8.20
2023-02-21T07:31:22.481Z,8.20
2023-02-21T07:33:49.303Z,8.20
2023-02-21T07:36:16.126Z,8.30
2023-02-21T07:38:42.882Z,8.20
2023-02-21T07:41:09.580Z,8.30
2023-02-21T07:43:36.324Z,8.20
2023-02-21T07:46:03.136Z,8.20
2023-02-21T07:48:30.027Z,8.20
2023-02-21T07:50:56.798Z,8.20
2023-02-21T07:53:23.523Z,8.20
2023-02-21T07:55:50.266Z,8.30
2023-02-21T07:58:17.037Z,8.30
2023-02-21T08:00:43.785Z,8.30
2023-02-21T08:03:13.509Z,8.30
2023-02-21T08:05:40.858Z,8.30
2023-02-21T08:08:09.234Z,8.30
2023-02-21T08:10:37.133Z,8.30
2023-02-21T08:13:04.821Z,8.30
2023-02-21T08:15:31.604Z,8.30
2023-02-21T08:17:58.365Z,8.30
2023-02-21T08:22:52.256Z,8.30
2023-02-21T08:25:18.994Z,8.30
2023-02-21T08:27:46.683Z,8.30
2023-02-21T08:30:16.660Z,8.30
2023-02-21T08:32:43.898Z,8.30
2023-02-21T08:35:17.472Z,8.30
2023-02-21T08:37:49.146Z,8.30
2023-02-21T08:40:19.180Z,8.30
2023-02-21T08:42:52.564Z,8.30
2023-02-21T08:45:21.853Z,8.30
2023-02-21T08:47:49.083Z,8.30
2023-02-21T08:50:16.221Z,8.40
2023-02-21T08:52:42.921Z,8.40
2023-02-21T08:55:09.660Z,8.30
2023-02-21T08:57:36.446Z,8.40
2023-02-21T09:00:06.505Z,8.40
2023-02-21T09:02:33.246Z,8.40
2023-02-21T09:05:00.031Z,8.40
2023-02-21T09:07:28.707Z,8.50
2023-02-21T09:09:55.485Z,8.50
2023-02-21T09:12:22.237Z,8.50
2023-02-21T09:14:48.916Z,8.50
2023-02-21T09:17:15.914Z,8.50
2023-02-21T09:19:42.759Z,8.60
2023-02-21T09:22:10.397Z,8.60
2023-02-21T09:24:38.330Z,8.60
2023-02-21T09:27:06.092Z,8.60
2023-02-21T09:29:45.511Z,8.70
2023-02-21T09:32:13.845Z,8.70
2023-02-21T09:34:40.620Z,8.70
2023-02-21T09:37:07.529Z,8.70
2023-02-21T09:39:36.728Z,8.70
2023-02-21T09:42:03.543Z,8.80
2023-02-21T09:44:30.473Z,8.80
2023-02-21T09:47:02.645Z,8.80
2023-02-21T09:49:39.383Z,8.90
2023-02-21T09:52:13.117Z,8.80
2023-02-21T09:54:44.717Z,8.90
2023-02-21T09:57:14.919Z,8.90
2023-02-21T09:59:41.848Z,8.90
2023-02-21T10:02:14.655Z,8.90
2023-02-21T10:05:11.930Z,9.00
2023-02-21T10:07:57.206Z,9.00
2023-02-21T10:10:37.967Z,9.00
2023-02-21T10:13:33.538Z,9.00
2023-02-21T10:16:08.776Z,9.00
2023-02-21T10:19:07.309Z,9.00
2023-02-21T10:21:41.900Z,9.00
2023-02-21T10:24:18.748Z,8.90
2023-02-21T10:27:11.706Z,8.90
2023-02-21T10:29:44.120Z,8.90
2023-02-21T10:32:11.155Z,9.00
2023-02-21T10:34:37.992Z,8.90
2023-02-21T10:37:33.221Z,8.90
2023-02-21T10:40:21.668Z,8.90
2023-02-21T10:42:54.536Z,8.90
2023-02-21T10:45:27.711Z,8.80
2023-02-21T10:48:02.861Z,8.90
2023-02-21T10:50:38.649Z,8.90
2023-02-21T10:53:06.398Z,8.90
2023-02-21T10:55:33.761Z,8.90
2023-02-21T10:58:09.449Z,8.90
2023-02-21T11:00:39.440Z,8.90
2023-02-21T11:03:30.838Z,8.80
2023-02-21T11:05:58.568Z,8.90
2023-02-21T11:08:41.637Z,8.90
2023-02-21T11:11:08.951Z,8.90
2023-02-21T11:13:36.696Z,9.00
2023-02-21T11:16:24.716Z,9.00
2023-02-21T11:19:07.472Z,9.00
2023-02-21T11:21:34.285Z,9.00
2023-02-21T11:24:04.192Z,9.10
2023-02-21T11:26:47.696Z,9.10
2023-02-21T11:29:19.780Z,9.20
2023-02-21T11:31:46.758Z,9.10
2023-02-21T11:34:15.800Z,9.10
2023-02-21T11:36:45.442Z,9.10
2023-02-21T11:39:31.410Z,9.10
2023-02-21T11:42:22.979Z,9.00
2023-02-21T11:45:01.991Z,9.00
2023-02-21T11:47:36.459Z,8.90
2023-02-21T11:50:33.060Z,8.90
2023-02-21T11:53:06.418Z,9.00
2023-02-21T11:55:35.112Z,8.90
2023-02-21T11:58:30.223Z,8.90
2023-02-21T12:01:08.527Z,8.90
2023-02-21T12:03:59.571Z,9.00
2023-02-21T12:07:05.589Z,9.00
2023-02-21T12:09:44.239Z,9.00
2023-02-21T12:12:35.460Z,9.00
2023-02-21T12:15:23.652Z,9.00
2023-02-21T12:18:06.959Z,9.00
2023-02-21T12:20:54.059Z,9.10
2023-02-21T12:23:49.729Z,9.10
2023-02-21T12:26:44.739Z,9.10
2023-02-21T12:29:45.356Z,9.10
2023-02-21T12:32:22.177Z,9.10
2023-02-21T12:35:19.396Z,9.10
2023-02-21T12:38:14.639Z,9.00
2023-02-21T12:40:53.629Z,9.00
2023-02-21T12:43:47.810Z,8.90
2023-02-21T12:46:35.645Z,9.00
2023-02-21T12:49:35.427Z,9.00
2023-02-21T12:52:23.973Z,9.00
2023-02-21T12:55:01.907Z,9.00
2023-02-21T12:57:33.181Z,9.00
2023-02-21T13:00:47.552Z,9.00
2023-02-21T13:03:36.701Z,9.00
2023-02-21T13:06:33.917Z,9.00
2023-02-21T13:09:06.338Z,9.00
2023-02-21T13:12:00.790Z,9.00
2023-02-21T13:14:41.024Z,9.00
2023-02-21T13:17:13.095Z,9.10
2023-02-21T13:19:55.703Z,9.10
2023-02-21T13:23:18.947Z,9.10
2023-02-21T13:25:48.508Z,9.10
2023-02-21T13:28:15.211Z,9.10
2023-02-21T13:30:46.973Z,9.10
2023-02-21T13:33:29.152Z,9.10
2023-02-21T13:36:00.786Z,9.00
2023-02-21T13:38:32.675Z,9.10
2023-02-21T13:41:16.849Z,9.10
2023-02-21T13:43:51.374Z,9.00
2023-02-21T13:46:30.257Z,9.10
2023-02-21T13:49:34.507Z,9.10
2023-02-21T13:52:24.774Z,9.00
2023-02-21T13:55:13.121Z,9.00
2023-02-21T13:57:41.234Z,9.00
2023-02-21T14:00:25.870Z,9.00
2023-02-21T14:03:08.920Z,8.90
2023-02-21T14:05:56.252Z,8.90
2023-02-21T14:08:30.451Z,8.90
2023-02-21T14:11:06.028Z,8.90
2023-02-21T14:13:54.525Z,8.90
2023-02-21T14:16:45.085Z,8.90
2023-02-21T14:19:26.633Z,8.90
2023-02-21T14:22:09.389Z,8.90
2023-02-21T14:24:39.274Z,8.90
2023-02-21T14:27:28.535Z,8.90
2023-02-21T14:30:01.297Z,9.00
2023-02-21T14:32:48.128Z,9.00
2023-02-21T14:35:20.687Z,9.00
2023-02-21T14:38:02.250Z,8.90
2023-02-21T14:40:43.353Z,8.90
2023-02-21T14:43:30.650Z,8.90
2023-02-21T14:46:07.452Z,8.80
2023-02-21T14:48:40.357Z,8.80
2023-02-21T14:51:07.057Z,8.80
2023-02-21T14:54:00.767Z,8.80
2023-02-21T14:57:07.522Z,8.80
2023-02-21T15:00:06.820Z,8.80
2023-02-21T15:02:48.045Z,8.70
2023-02-21T15:05:23.020Z,8.60
2023-02-21T15:07:49.837Z,8.60
2023-02-21T15:10:19.353Z,8.60
2023-02-21T15:12:55.320Z,8.60
2023-02-21T15:15:28.150Z,8.60
2023-02-21T15:17:57.160Z,8.50
2023-02-21T15:23:16.346Z,8.50
2023-02-21T15:25:44.598Z,8.50
2023-02-21T15:28:21.991Z,8.50
2023-02-21T15:31:18.061Z,8.50
2023-02-21T15:33:45.262Z,8.40
2023-02-21T15:36:16.930Z,8.40
2023-02-21T15:39:06.205Z,8.40
2023-02-21T15:41:59.621Z,8.40
2023-02-21T15:44:29.483Z,8.40
2023-02-21T15:47:30.430Z,8.40
2023-02-21T15:50:02.188Z,8.40
2023-02-21T15:52:36.107Z,8.40
2023-02-21T15:55:22.747Z,8.40
2023-02-21T15:58:22.128Z,8.40
2023-02-21T16:01:06.914Z,8.40
2023-02-21T16:03:41.838Z,8.40
2023-02-21T16:06:19.668Z,8.40
2023-02-21T16:09:14.448Z,8.40
2023-02-21T16:11:47.065Z,8.50
2023-02-21T16:14:19.625Z,8.50
2023-02-21T16:16:47.684Z,8.40
2023-02-21T16:19:14.558Z,8.50
2023-02-21T16:21:41.404Z,8.50
2023-02-21T16:24:34.312Z,8.50
2023-02-21T16:27:09.013Z,8.50
2023-02-21T16:29:35.759Z,8.50
2023-02-21T16:32:03.258Z,8.50
2023-02-21T16:34:33.136Z,8.50
2023-02-21T16:37:05.846Z,8.40
2023-02-21T16:39:32.642Z,8.40
2023-02-21T16:41:59.505Z,8.40
2023-02-21T16:44:26.340Z,8.40
2023-02-21T16:46:54.185Z,8.40
2023-02-21T16:49:20.942Z,8.40
2023-02-21T16:51:48.807Z,8.40
2023-02-21T16:54:16.186Z,8.40
2023-02-21T16:56:46.313Z,8.40
2023-02-21T16:59:16.817Z,8.40
2023-02-21T17:01:43.716Z,8.40
2023-02-21T17:04:19.231Z,8.40
2023-02-21T17:06:59.886Z,8.40
2023-02-21T17:09:29.604Z,8.40
2023-02-21T17:11:56.398Z,8.40
2023-02-21T17:14:23.171Z,8.40
2023-02-21T17:16:49.944Z,8.40
2023-02-21T17:19:21.212Z,8.30
2023-02-21T17:21:48.397Z,8.40
2023-02-21T17:24:15.946Z,8.30
2023-02-21T17:26:42.764Z,8.30
2023-02-21T17:29:10.300Z,8.30
2023-02-21T17:31:37.213Z,8.30
2023-02-21T17:34:04.473Z,8.30
2023-02-21T17:36:31.270Z,8.30
2023-02-21T17:38:58.973Z,8.30
2023-02-21T17:41:27.592Z,8.30
2023-02-21T17:43:54.511Z,8.30
2023-02-21T17:46:21.546Z,8.30
2023-02-21T17:48:48.539Z,8.30
2023-02-21T17:51:21.178Z,8.30
2023-02-21T17:53:48.017Z,8.30
2023-02-21T17:56:24.758Z,8.30
2023-02-21T17:58:52.020Z,8.30
2023-02-21T18:01:20.125Z,8.30
2023-02-21T18:03:49.856Z,8.30
2023-02-21T18:06:17.205Z,8.30
2023-02-21T18:08:47.395Z,8.30
2023-02-21T18:11:17.439Z,8.30
2023-02-21T18:13:44.698Z,8.30
2023-02-21T18:16:11.530Z,8.30
2023-02-21T18:18:38.268Z,8.30
2023-02-21T18:21:05.841Z,8.30
2023-02-21T18:23:33.654Z,8.30
2023-02-21T18:26:01.416Z,8.30
2023-02-21T18:28:29.581Z,8.30
2023-02-21T18:30:56.544Z,8.20
2023-02-21T18:33:27.056Z,8.20
2023-02-21T18:35:58.438Z,8.20
2023-02-21T18:38:26.798Z,8.20
2023-02-21T18:40:54.669Z,8.20
2023-02-21T18:43:27.334Z,8.20
2023-02-21T18:45:55.890Z,8.20
2023-02-21T18:48:23.930Z,8.20
2023-02-21T18:50:50.795Z,8.20
2023-02-21T18:53:17.935Z,8.20
2023-02-21T18:55:44.753Z,8.30
2023-02-21T18:58:11.943Z,8.30
2023-02-21T19:00:40.781Z,8.30
2023-02-21T19:03:09.487Z,8.30
2023-02-21T19:05:36.282Z,8.30
2023-02-21T19:08:03.476Z,8.20
2023-02-21T19:10:31.136Z,8.20
2023-02-21T19:13:02.050Z,8.20
2023-02-21T19:15:32.023Z,8.10
2023-02-21T19:17:59.652Z,8.20
2023-02-21T19:20:26.775Z,8.20
2023-02-21T19:22:55.520Z,8.20
2023-02-21T19:25:27.851Z,8.20
2023-02-21T19:28:00.218Z,8.20
2023-02-21T19:30:34.652Z,8.10
2023-02-21T19:33:05.937Z,8.10
2023-02-21T19:35:34.678Z,8.10
2023-02-21T19:38:07.048Z,8.20
2023-02-21T19:40:34.839Z,8.20
2023-02-21T19:43:01.984Z,8.20
2023-02-21T19:45:28.973Z,8.10
2023-02-21T19:47:55.680Z,8.10
2023-02-21T19:50:22.463Z,8.10
2023-02-21T19:52:54.843Z,8.10
2023-02-21T19:55:22.314Z,8.10
2023-02-21T19:57:49.313Z,8.10
2023-02-21T20:00:16.473Z,8.10
2023-02-21T20:02:44.577Z,8.10
2023-02-21T20:05:13.958Z,8.10
2023-02-21T20:07:41.194Z,8.10
2023-02-21T20:10:10.234Z,8.10
2023-02-21T20:12:37.165Z,8.10
2023-02-21T20:15:05.259Z,8.10
2023-02-21T20:17:34.291Z,8.10
2023-02-21T20:20:01.096Z,8.10
2023-02-21T20:22:33.895Z,8.10
2023-02-21T20:25:01.568Z,8.00
2023-02-21T20:27:28.544Z,8.10
2023-02-21T20:29:55.622Z,8.10
2023-02-21T20:32:23.121Z,8.10
2023-02-21T20:34:54.150Z,8.10
2023-02-21T20:37:21.435Z,8.00
2023-02-21T20:39:49.654Z,8.10
2023-02-21T20:42:17.084Z,8.10
2023-02-21T20:44:44.402Z,8.10
2023-02-21T20:47:11.509Z,8.10
2023-02-21T20:49:39.094Z,8.10
2023-02-21T20:52:06.154Z,8.10
2023-02-21T20:54:33.067Z,8.10
2023-02-21T20:56:59.924Z,8.10
2023-02-21T20:59:32.336Z,8.10
2023-02-21T21:02:00.110Z,8.10
2023-02-21T21:04:35.220Z,8.10
2023-02-21T21:07:08.444Z,8.10
2023-02-21T21:09:37.436Z,8.10
2023-02-21T21:12:13.038Z,8.10
2023-02-21T21:14:43.091Z,8.10
2023-02-21T21:17:13.341Z,8.10
2023-02-21T21:19:41.917Z,8.10
2023-02-21T21:22:11.124Z,8.10
2023-02-21T21:24:38.927Z,8.10
2023-02-21T21:27:09.978Z,8.10
2023-02-21T21:29:38.811Z,8.00
2023-02-21T21:32:06.152Z,8.00
2023-02-21T21:34:33.636Z,8.00
2023-02-21T21:37:02.078Z,8.00
2023-02-21T21:39:29.145Z,8.00
2023-02-21T21:42:05.244Z,8.10
2023-02-21T21:44:32.926Z,8.10
2023-02-21T21:47:01.025Z,8.10
2023-02-21T21:49:31.002Z,8.10
2023-02-21T21:51:57.889Z,8.10
2023-02-21T21:54:26.176Z,8.10
2023-02-21T21:56:55.079Z,8.10
2023-02-21T21:59:26.981Z,8.10
2023-02-21T22:01:57.583Z,8.10
2023-02-21T22:04:26.757Z,8.10
2023-02-21T22:06:55.438Z,8.10
2023-02-21T22:09:22.947Z,8.10
2023-02-21T22:11:50.432Z,8.10
2023-02-21T22:14:19.740Z,8.10
2023-02-21T22:16:48.871Z,8.10
2023-02-21T22:19:16.728Z,8.10
2023-02-21T22:21:44.080Z,8.10
2023-02-21T22:24:15.091Z,8.00
2023-02-21T22:26:44.776Z,8.00
2023-02-21T22:29:15.490Z,8.00
2023-02-21T22:31:43.610Z,8.00
2023-02-21T22:34:10.728Z,8.00
2023-02-21T22:36:37.758Z,8.00
2023-02-21T22:39:11.527Z,8.00
2023-02-21T22:41:39.884Z,8.00
2023-02-21T22:44:06.835Z,8.00
2023-02-21T22:46:47.923Z,7.90
2023-02-21T22:49:18.101Z,7.90
2023-02-21T22:51:44.857Z,7.90
2023-02-21T22:54:14.499Z,7.90
2023-02-21T22:56:50.847Z,7.90
2023-02-21T22:59:19.307Z,7.90
2023-02-21T23:01:46.289Z,7.90
2023-02-21T23:04:16.087Z,7.90
2023-02-21T23:06:44.041Z,7.90
2023-02-21T23:09:12.763Z,7.90
2023-02-21T23:11:41.841Z,7.90
2023-02-21T23:14:09.893Z,7.90
2023-02-21T23:16:38.121Z,7.90
2023-02-21T23:19:06.838Z,8.00
2023-02-21T23:21:34.528Z,8.00
2023-02-21T23:24:01.301Z,8.00
2023-02-21T23:26:28.090Z,8.00
2023-02-21T23:28:55.473Z,8.00
2023-02-21T23:31:22.880Z,8.00
2023-02-21T23:33:49.712Z,8.00
2023-02-21T23:36:22.694Z,8.00
2023-02-21T23:38:51.269Z,7.90
2023-02-21T23:41:18.577Z,7.90
2023-02-21T23:43:46.680Z,8.00
2023-02-21T23:46:21.896Z,8.00
2023-02-21T23:48:49.320Z,8.00
2023-02-21T23:51:17.870Z,8.00
2023-02-21T23:53:45.370Z,8.10
2023-02-21T23:56:13.249Z,8.10
2023-02-21T23:58:44.353Z,8.10
